Time;durP1;ratioP1;P1;durP2;ratioP2;P2;SDS_P1;SDS_P2;PMS_P1;PMS_P2;Temp;Humidity;BMP_temperature;BMP_pressure;BME280_temperature;BME280_humidity;BME280_pressure;Samples;Min_cycle;Max_cycle;Signal;HPM_P1;HPM_P2
2022/12/15 00:38:45;;;;;;;29.07;16.13;;;;;;;5.16;85.15;96313.13;5107498;28;20735;-78
2022/12/15 00:41:16;;;;;;;21.83;13.07;;;;;;;5.08;83.94;96311.72;5106556;28;20188;-76
2022/12/15 00:43:43;;;;;;;24.00;14.23;;;;;;;5.00;84.19;96288.09;5107705;28;20187;-76
2022/12/15 00:48:57;;;;;;;24.20;15.37;;;;;;;5.03;86.19;96316.22;5105671;28;20220;-75
2022/12/15 01:21:48;;;;;;;16.37;11.23;;;;;;;5.21;82.86;96306.13;5107460;28;20220;-80
2022/12/15 01:24:15;;;;;;;18.40;12.57;;;;;;;5.24;82.85;96311.13;5106436;28;20180;-79
2022/12/15 01:26:42;;;;;;;21.93;14.23;;;;;;;5.06;82.78;96300.69;5107271;28;20185;-76
2022/12/15 01:29:09;;;;;;;20.50;13.97;;;;;;;5.24;83.92;96323.09;5106436;28;20189;-79
2022/12/15 01:31:36;;;;;;;21.87;13.43;;;;;;;5.16;83.21;96318.25;5107143;28;20185;-77
2022/12/15 01:34:03;;;;;;;19.57;12.67;;;;;;;5.19;83.05;96318.16;5106656;28;20186;-76
2022/12/15 01:36:30;;;;;;;18.67;12.93;;;;;;;5.22;84.50;96312.06;5106231;28;20199;-76
2022/12/15 01:42:36;;;;;;;21.70;14.40;;;;;;;5.08;85.36;96317.72;5105716;28;20307;-78
2022/12/15 01:45:28;;;;;;;24.70;15.27;;;;;;;5.05;86.44;96312.66;5088302;28;20693;-75
2022/12/15 01:48:02;;;;;;;24.67;14.37;;;;;;;5.02;87.39;96301.69;5088986;28;20192;-78
2022/12/15 01:50:32;;;;;;;21.63;14.37;;;;;;;5.14;86.41;96285.84;5106145;28;20184;-79
2022/12/15 01:52:59;;;;;;;21.97;15.43;;;;;;;5.14;86.23;96275.59;5107582;28;20186;-76
2022/12/15 01:55:28;;;;;;;21.60;13.87;;;;;;;5.13;85.73;96272.16;5105985;28;20196;-77
2022/12/15 01:58:02;;;;;;;25.77;14.90;;;;;;;5.20;86.53;96285.63;5106604;28;20186;-76
2022/12/15 02:00:29;;;;;;;22.20;14.37;;;;;;;5.08;86.24;96278.38;5108731;28;20225;-78
2022/12/15 02:02:59;;;;;;;24.27;15.13;;;;;;;5.17;86.79;96293.44;5109580;28;20253;-77
2022/12/15 02:05:29;;;;;;;23.23;14.53;;;;;;;5.15;85.98;96287.53;5110627;28;20583;-78
2022/12/15 02:07:56;;;;;;;24.13;14.70;;;;;;;5.05;86.16;96294.72;5109821;28;20191;-78
2022/12/15 02:10:31;;;;;;;24.40;14.77;;;;;;;5.06;87.47;96298.13;5092364;28;20208;-80
2022/12/15 02:13:18;;;;;;;20.83;14.87;;;;;;;5.05;88.03;96288.75;5109974;28;20279;-79
2022/12/15 02:16:00;;;;;;;22.30;14.80;;;;;;;5.19;86.84;96296.78;5109382;28;20229;-80
2022/12/15 02:18:49;;;;;;;23.77;14.60;;;;;;;5.08;87.30;96298.91;5110520;28;20733;-80
2022/12/15 02:21:29;;;;;;;24.87;14.80;;;;;;;4.90;88.53;96278.13;5108547;28;20190;-79
2022/12/15 02:24:20;;;;;;;23.13;15.50;;;;;;;5.20;88.38;96313.84;5110256;28;20306;-80
2022/12/15 02:27:11;;;;;;;22.97;16.20;;;;;;;5.27;87.22;96315.31;5110651;28;20654;-80
2022/12/15 02:30:06;;;;;;;24.63;15.33;;;;;;;5.17;86.72;96306.28;5091016;28;20185;-80
2022/12/15 02:32:48;;;;;;;36.07;15.17;;;;;;;5.31;87.03;96311.75;5091946;28;20569;-81
2022/12/15 02:35:39;;;;;;;22.87;14.27;;;;;;;5.40;87.52;96306.28;5109998;28;20185;-79
2022/12/15 02:38:08;;;;;;;21.87;14.57;;;;;;;5.32;87.45;96282.59;5102170;28;20203;-81
2022/12/15 02:40:36;;;;;;;20.30;14.10;;;;;;;5.37;86.55;96270.44;5110432;28;20184;-79
2022/12/15 02:43:06;;;;;;;22.67;13.27;;;;;;;5.35;87.08;96269.66;5109079;28;20263;-79
2022/12/15 02:46:00;;;;;;;21.73;13.33;;;;;;;5.30;86.63;96269.81;5109728;28;20177;-78
2022/12/15 02:48:46;;;;;;;19.57;13.20;;;;;;;5.33;87.36;96274.84;5109920;28;20605;-79
2022/12/15 02:51:50;;;;;;;22.93;12.63;;;;;;;5.46;86.82;96288.06;5108896;28;20192;-80
2022/12/15 02:54:35;;;;;;;18.47;11.73;;;;;;;5.31;86.55;96276.66;5109583;28;20740;-79
2022/12/15 02:57:35;;;;;;;16.07;11.13;;;;;;;5.36;86.13;96284.16;5109932;28;20186;-79
2022/12/15 03:00:10;;;;;;;18.33;10.53;;;;;;;5.42;86.87;96273.69;5084973;28;20196;-79
2022/12/15 03:02:42;;;;;;;14.47;9.23;;;;;;;5.39;86.33;96284.06;5109619;28;20308;-78
2022/12/15 03:05:12;;;;;;;14.77;10.00;;;;;;;5.32;87.18;96283.44;5109257;28;20213;-78
2022/12/15 03:07:41;;;;;;;13.50;9.40;;;;;;;5.13;87.36;96266.22;5109010;28;20188;-76
2022/12/15 03:10:10;;;;;;;13.03;9.60;;;;;;;5.34;87.49;96296.22;5109634;28;20190;-78
2022/12/15 03:12:39;;;;;;;15.33;10.03;;;;;;;5.28;88.03;96309.28;5107314;28;20197;-80
2022/12/15 03:15:07;;;;;;;15.37;11.27;;;;;;;5.23;88.16;96313.75;5109499;28;20225;-78
2022/12/15 03:17:33;;;;;;;13.80;10.07;;;;;;;5.29;87.83;96308.41;5108421;28;20203;-80
2022/12/15 03:20:00;;;;;;;15.40;10.57;;;;;;;5.30;87.59;96305.75;5109264;28;20191;-79
2022/12/15 03:22:30;;;;;;;16.10;10.17;;;;;;;5.21;87.26;96295.00;5107869;28;20235;-80
2022/12/15 03:24:57;;;;;;;14.83;10.37;;;;;;;5.27;87.76;96282.78;5108836;28;20215;-80
2022/12/15 03:27:24;;;;;;;13.10;9.80;;;;;;;5.30;87.72;96274.97;5109519;28;20185;-81
2022/12/15 03:29:52;;;;;;;16.40;10.70;;;;;;;5.09;87.52;96226.19;5109164;28;20202;-77
2022/12/15 03:32:19;;;;;;;14.23;9.77;;;;;;;5.28;87.00;96245.09;5120154;28;20199;-77
2022/12/15 03:34:46;;;;;;;16.37;11.20;;;;;;;5.36;86.91;96258.47;5112187;28;20194;-80
2022/12/15 03:37:13;;;;;;;16.27;10.43;;;;;;;5.33;86.56;96250.91;5113668;28;20191;-80
2022/12/15 03:39:40;;;;;;;16.50;11.23;;;;;;;5.37;87.65;96234.50;5109512;28;20575;-80
2022/12/15 03:42:07;;;;;;;16.63;10.73;;;;;;;5.32;87.29;96221.00;5108834;28;20212;-77
2022/12/15 03:44:33;;;;;;;18.33;12.33;;;;;;;5.10;87.62;96215.00;5109073;28;20192;-79
2022/12/15 03:47:00;;;;;;;22.20;11.97;;;;;;;5.04;88.33;96225.50;5107875;28;20185;-79
2022/12/15 03:49:29;;;;;;;22.27;13.20;;;;;;;4.99;89.45;96217.16;5108850;28;20224;-77
2022/12/15 03:51:56;;;;;;;20.37;13.27;;;;;;;4.99;89.62;96222.28;5107799;28;20789;-79
2022/12/15 03:54:24;;;;;;;23.07;12.50;;;;;;;5.03;89.75;96221.28;5108731;28;20176;-77
2022/12/15 03:56:50;;;;;;;22.67;14.17;;;;;;;5.03;89.81;96224.66;5107793;28;20218;-79
2022/12/15 03:59:18;;;;;;;25.40;14.70;;;;;;;5.12;89.43;96228.63;5108569;28;20190;-79
2022/12/15 04:01:47;;;;;;;24.20;14.47;;;;;;;5.19;90.32;96220.66;5108548;28;20686;-79
2022/12/15 04:04:15;;;;;;;24.83;14.27;;;;;;;5.03;89.72;96227.22;5106504;28;20298;-79
2022/12/15 04:06:42;;;;;;;24.67;15.07;;;;;;;4.91;90.35;96204.59;5108577;28;20213;-78
2022/12/15 04:09:09;;;;;;;24.43;15.33;;;;;;;5.12;90.22;96226.91;5107262;28;20177;-76
2022/12/15 04:11:36;;;;;;;25.23;14.90;;;;;;;5.21;90.79;96220.59;5108763;28;20177;-77
2022/12/15 04:14:02;;;;;;;26.80;15.87;;;;;;;5.03;90.32;96228.97;5107269;28;20227;-78
2022/12/15 04:16:29;;;;;;;25.57;15.67;;;;;;;5.02;90.05;96229.84;5108077;28;20533;-78
2022/12/15 04:21:42;;;;;;;26.03;15.83;;;;;;;5.32;89.82;96251.78;5107149;28;20275;-76
2022/12/15 05:33:19;;;;;;;30.00;18.87;;;;;;;5.31;89.78;96283.50;5127905;28;20188;-80
2022/12/15 05:35:46;;;;;;;24.50;16.77;;;;;;;5.20;90.17;96289.03;5129063;27;20176;-79
2022/12/15 05:38:13;;;;;;;25.70;15.17;;;;;;;5.14;91.14;96275.59;5131574;27;20189;-79
2022/12/15 05:40:40;;;;;;;28.47;16.90;;;;;;;5.04;91.61;96282.78;5130217;27;20271;-78
2022/12/15 05:43:07;;;;;;;29.97;17.83;;;;;;;4.94;92.23;96284.88;5131526;27;20229;-79
2022/12/15 05:45:34;;;;;;;24.83;16.17;;;;;;;4.97;91.78;96295.00;5095592;27;20200;-79
2022/12/15 05:48:01;;;;;;;25.00;16.13;;;;;;;4.94;92.58;96296.84;5130665;27;20177;-78
2022/12/15 05:50:28;;;;;;;29.33;18.07;;;;;;;5.08;92.02;96283.50;5131517;27;20642;-79
2022/12/15 05:52:57;;;;;;;31.47;18.33;;;;;;;5.08;91.21;96268.97;5111826;27;20193;-79
2022/12/15 05:55:24;;;;;;;26.67;17.30;;;;;;;5.25;92.19;96286.31;5131409;27;20183;-77
2022/12/15 05:57:52;;;;;;;32.40;20.03;;;;;;;5.19;91.56;96289.09;5111858;27;20269;-79
2022/12/15 06:00:20;;;;;;;30.33;18.43;;;;;;;5.10;90.62;96281.72;5112970;27;20368;-78
2022/12/15 06:02:46;;;;;;;25.63;16.83;;;;;;;5.10;91.47;96291.97;5130078;27;20279;-77
2022/12/15 06:05:16;;;;;;;28.03;18.00;;;;;;;5.06;91.04;96295.56;5130196;27;20525;-78
2022/12/15 06:07:43;;;;;;;28.10;15.60;;;;;;;5.02;91.81;96291.44;5130850;27;20188;-78
2022/12/15 06:10:10;;;;;;;32.70;18.27;;;;;;;5.06;91.59;96306.66;5129981;27;20221;-78
2022/12/15 06:12:38;;;;;;;33.47;17.77;;;;;;;5.07;91.95;96312.63;5113030;27;20213;-78
2022/12/15 06:15:05;;;;;;;27.70;17.20;;;;;;;5.06;92.10;96310.94;5129942;27;20252;-78
2022/12/15 06:17:32;;;;;;;30.93;18.43;;;;;;;4.97;92.63;96311.28;5112716;27;20683;-80
2022/12/15 06:19:59;;;;;;;33.33;19.97;;;;;;;5.12;92.44;96323.56;5130961;27;20218;-78
2022/12/15 06:22:29;;;;;;;33.60;18.13;;;;;;;5.13;91.92;96323.50;5130680;27;20714;-80
2022/12/15 06:24:56;;;;;;;31.33;21.13;;;;;;;5.18;91.49;96320.78;5130520;27;20218;-79
2022/12/15 06:27:23;;;;;;;31.83;19.77;;;;;;;5.22;91.78;96328.31;5129639;27;20185;-75
2022/12/15 06:29:50;;;;;;;34.43;20.67;;;;;;;5.26;91.37;96306.78;5130757;27;20180;-76
2022/12/15 06:32:17;;;;;;;33.50;21.87;;;;;;;5.59;90.99;96328.63;5111414;27;20284;-78
2022/12/15 06:34:44;;;;;;;32.43;19.43;;;;;;;5.73;89.82;96340.94;5130707;27;20600;-81
2022/12/15 06:37:11;;;;;;;27.40;18.53;;;;;;;5.86;88.70;96339.59;5129754;27;20181;-77
2022/12/15 06:39:38;;;;;;;35.87;18.60;;;;;;;5.95;89.49;96344.41;5112367;27;20235;-77
2022/12/15 06:42:05;;;;;;;27.30;17.77;;;;;;;5.82;89.64;96335.44;5130290;27;20216;-78
2022/12/15 06:44:32;;;;;;;25.67;18.47;;;;;;;5.85;88.91;96340.53;5129375;27;20668;-76
2022/12/15 06:46:59;;;;;;;31.27;18.50;;;;;;;6.13;88.94;96360.81;5130111;27;20196;-76
2022/12/15 06:49:26;;;;;;;30.27;19.20;;;;;;;6.21;88.67;96344.22;5128992;27;20217;-77
2022/12/15 06:51:53;;;;;;;32.37;19.73;;;;;;;6.30;87.83;96368.72;5130336;27;20220;-79
2022/12/15 06:54:20;;;;;;;32.37;20.10;;;;;;;6.36;87.52;96374.47;5129016;27;20272;-79
2022/12/15 06:56:47;;;;;;;31.43;21.37;;;;;;;6.34;87.46;96376.25;5111620;27;20238;-80
2022/12/15 06:59:15;;;;;;;31.03;20.00;;;;;;;6.14;87.67;96344.53;5129479;27;20196;-79
2022/12/15 07:01:42;;;;;;;27.87;19.20;;;;;;;6.46;87.17;96403.22;5129814;27;20187;-79
2022/12/15 07:04:10;;;;;;;30.50;19.73;;;;;;;6.39;87.06;96387.19;5130322;27;20253;-80
2022/12/15 07:06:38;;;;;;;33.17;19.40;;;;;;;6.37;87.00;96394.13;5110431;27;20371;-79
2022/12/15 07:09:07;;;;;;;33.80;18.03;;;;;;;6.27;87.38;96387.66;5129907;27;20186;-78
2022/12/15 07:11:34;;;;;;;27.67;19.17;;;;;;;6.43;87.65;96417.03;5128481;27;20191;-76
2022/12/15 07:14:02;;;;;;;32.97;18.03;;;;;;;6.30;87.37;96415.84;5130701;27;20253;-79
2022/12/15 07:16:29;;;;;;;27.67;17.30;;;;;;;6.34;87.45;96412.25;5128956;27;20274;-79
2022/12/15 07:18:57;;;;;;;28.67;18.13;;;;;;;6.24;87.25;96422.94;5129150;27;20245;-79
2022/12/15 07:21:24;;;;;;;27.50;17.03;;;;;;;6.27;88.30;96405.66;5094121;27;20273;-79
2022/12/15 07:23:51;;;;;;;31.13;19.17;;;;;;;6.34;87.60;96409.69;5109714;27;20219;-80
2022/12/15 07:26:22;;;;;;;28.00;18.30;;;;;;;6.36;88.20;96410.47;5129593;27;20273;-78
2022/12/15 07:28:49;;;;;;;32.70;21.57;;;;;;;6.41;88.43;96402.53;5109711;27;20197;-79
2022/12/15 07:31:16;;;;;;;28.07;17.17;;;;;;;6.29;88.20;96411.59;5129424;27;20194;-79
2022/12/15 07:33:43;;;;;;;27.03;17.03;;;;;;;6.23;87.53;96413.56;5128378;27;20596;-80
2022/12/15 07:36:11;;;;;;;29.37;17.80;;;;;;;6.21;89.41;96417.91;5110660;27;20189;-78
2022/12/15 07:38:38;;;;;;;23.07;15.87;;;;;;;6.22;88.25;96425.56;5129445;27;20585;-79
2022/12/15 07:41:07;;;;;;;26.73;17.23;;;;;;;6.41;88.25;96434.25;5110071;27;20185;-79
2022/12/15 07:43:34;;;;;;;31.60;18.63;;;;;;;6.42;87.79;96420.50;5110603;27;20626;-76
2022/12/15 07:46:03;;;;;;;25.60;17.37;;;;;;;6.53;87.08;96430.38;5109328;27;20194;-79
2022/12/15 07:48:30;;;;;;;27.20;15.57;;;;;;;6.49;87.67;96419.34;5129467;27;20682;-78
2022/12/15 07:51:37;;;;;;;26.60;17.63;;;;;;;6.36;86.92;96425.03;5115338;27;20214;-77
2022/12/15 07:54:57;;;;;;;28.37;17.30;;;;;;;6.18;88.74;96426.56;5126398;27;20190;-78
2022/12/15 07:58:18;;;;;;;29.80;18.80;;;;;;;6.00;90.04;96431.56;5127043;27;20211;-79
2022/12/15 08:01:39;;;;;;;32.50;19.13;;;;;;;5.93;89.49;96400.16;5117710;27;20523;-80
2022/12/15 08:04:59;;;;;;;30.13;17.63;;;;;;;6.24;89.47;96441.78;5123170;27;20211;-79
2022/12/15 08:08:20;;;;;;;29.90;17.60;;;;;;;6.39;90.07;96440.34;5089718;28;20284;-80
2022/12/15 08:11:44;;;;;;;20.87;13.57;;;;;;;6.41;89.37;96441.97;5114211;27;20226;-78
2022/12/15 08:15:04;;;;;;;16.83;11.90;;;;;;;6.49;88.82;96451.97;5085352;28;20735;-76
2022/12/15 08:18:25;;;;;;;20.17;10.77;;;;;;;6.67;88.55;96456.38;5086879;28;20669;-76
2022/12/15 08:21:45;;;;;;;12.90;8.80;;;;;;;6.66;87.54;96441.81;5091036;28;20202;-77
2022/12/15 08:25:06;;;;;;;14.73;9.80;;;;;;;6.85;87.35;96467.66;5131583;27;20587;-77
2022/12/15 08:28:27;;;;;;;12.60;8.10;;;;;;;6.85;87.61;96463.34;5086931;28;20616;-78
2022/12/15 08:31:47;;;;;;;11.03;8.03;;;;;;;7.01;87.37;96451.53;5086906;28;20240;-79
2022/12/15 08:35:08;;;;;;;11.67;7.97;;;;;;;7.10;86.37;96445.16;5094423;28;20210;-78
2022/12/15 08:38:32;;;;;;;10.90;7.43;;;;;;;7.34;86.22;96450.13;5085530;28;20206;-80
2022/12/15 08:41:52;;;;;;;10.63;7.53;;;;;;;7.46;83.78;96438.44;5085963;28;20550;-76
2022/12/15 08:45:13;;;;;;;10.33;7.17;;;;;;;7.45;83.94;96439.38;5085976;28;20243;-77
2022/12/15 08:48:34;;;;;;;10.77;7.53;;;;;;;7.41;83.75;96401.75;5095357;28;20601;-77
2022/12/15 08:51:54;;;;;;;11.17;7.67;;;;;;;7.75;82.76;96430.28;5103918;28;20203;-79
2022/12/15 08:55:15;;;;;;;16.30;8.50;;;;;;;7.89;83.28;96422.75;5104105;28;20252;-78
2022/12/15 08:58:36;;;;;;;13.73;9.37;;;;;;;8.07;83.08;96440.00;5106507;28;20195;-79
2022/12/15 09:01:56;;;;;;;13.70;9.30;;;;;;;8.16;82.42;96442.16;5104264;28;20180;-78
2022/12/15 09:05:17;;;;;;;15.83;10.10;;;;;;;8.19;82.75;96403.34;5105598;28;20224;-78
2022/12/15 09:08:38;;;;;;;15.00;9.20;;;;;;;8.44;82.22;96436.59;5105990;28;20200;-79
2022/12/15 09:11:58;;;;;;;12.77;8.50;;;;;;;8.62;81.27;96429.72;5108262;28;20176;-78
2022/12/15 09:15:19;;;;;;;10.47;7.33;;;;;;;8.64;80.99;96433.03;5108461;28;20307;-79
2022/12/15 09:18:39;;;;;;;13.53;8.17;;;;;;;8.76;80.77;96445.38;5107438;28;20195;-78
2022/12/15 09:22:00;;;;;;;14.07;9.60;;;;;;;8.97;79.40;96439.16;5109567;28;20269;-79
2022/12/15 09:25:21;;;;;;;13.90;9.20;;;;;;;8.76;80.12;96430.72;5110589;28;20250;-78
2022/12/15 09:28:41;;;;;;;12.73;8.63;;;;;;;9.02;79.96;96447.53;5108900;28;20184;-78
2022/12/15 09:32:02;;;;;;;9.17;6.70;;;;;;;9.25;78.14;96444.66;5109323;28;20180;-78
2022/12/15 09:35:23;;;;;;;10.00;6.93;;;;;;;9.43;77.66;96448.91;5109448;28;21054;-79
2022/12/15 09:38:43;;;;;;;10.70;6.73;;;;;;;9.42;76.85;96456.69;5110005;28;20184;-78
2022/12/15 09:42:07;;;;;;;7.73;5.80;;;;;;;9.25;76.80;96439.50;5108874;28;20188;-78
2022/12/15 09:45:28;;;;;;;9.60;6.27;;;;;;;9.09;77.38;96435.16;5110001;28;20694;-79
2022/12/15 09:48:48;;;;;;;10.17;6.57;;;;;;;9.17;77.13;96445.94;5107014;28;20215;-78
2022/12/15 09:52:10;;;;;;;8.10;6.10;;;;;;;9.25;77.49;96441.22;5109347;28;20216;-77
2022/12/15 09:55:17;;;;;;;11.33;8.80;;;;;;;9.53;77.08;96462.16;5110650;28;20229;-79
2022/12/15 09:58:34;;;;;;;13.80;9.33;;;;;;;9.69;76.51;96458.72;5109696;28;20204;-78
2022/12/15 10:02:29;;;;;;;13.07;8.10;;;;;;;9.56;77.13;96437.00;5108660;28;20296;-81
2022/12/15 10:05:32;;;;;;;12.77;7.90;;;;;;;9.97;76.24;96467.66;5026282;28;20256;-79
2022/12/15 10:08:53;;;;;;;12.47;7.83;;;;;;;9.98;76.25;96464.13;5109653;28;20715;-78
2022/12/15 10:12:09;;;;;;;12.83;9.47;;;;;;;10.20;75.58;96464.72;5110444;28;20195;-78
2022/12/15 10:14:56;;;;;;;12.20;9.20;;;;;;;10.29;75.46;96461.63;5121662;27;20643;-78
2022/12/15 10:17:36;;;;;;;13.43;8.60;;;;;;;10.40;75.04;96464.47;5128558;27;20195;-77
2022/12/15 10:21:03;;;;;;;11.73;8.53;;;;;;;10.34;75.73;96457.03;5131103;27;20696;-78
2022/12/15 10:24:24;;;;;;;13.13;7.90;;;;;;;10.41;75.23;96453.19;5129014;27;20231;-78
2022/12/15 10:27:45;;;;;;;12.63;7.57;;;;;;;10.52;74.62;96464.66;5126073;27;20408;-77
2022/12/15 10:31:18;;;;;;;13.10;8.17;;;;;;;10.46;76.49;96461.53;5088959;28;20283;-77
2022/12/15 10:34:09;;;;;;;9.93;6.77;;;;;;;10.50;76.31;96468.22;5122243;27;20199;-80
2022/12/15 10:36:36;;;;;;;13.43;8.80;;;;;;;10.65;75.88;96470.78;5145242;27;20179;-77
2022/12/15 10:39:03;;;;;;;10.50;7.90;;;;;;;10.57;75.02;96456.63;5128349;27;20678;-76
2022/12/15 10:41:32;;;;;;;11.43;8.17;;;;;;;10.73;74.98;96473.00;5109368;28;20289;-77
2022/12/15 10:44:01;;;;;;;11.83;8.70;;;;;;;10.60;75.36;96470.22;5107839;28;20224;-78
2022/12/15 10:46:29;;;;;;;12.50;7.80;;;;;;;10.64;75.29;96466.56;5109332;28;20212;-80
2022/12/15 10:48:58;;;;;;;14.00;9.60;;;;;;;10.70;75.53;96470.56;5107703;28;20201;-78
2022/12/15 10:51:31;;;;;;;14.80;8.57;;;;;;;10.83;74.69;96461.19;5109068;28;20732;-79
2022/12/15 10:54:02;;;;;;;11.40;8.83;;;;;;;10.84;75.17;96464.63;5108719;28;20665;-80
2022/12/15 10:56:31;;;;;;;12.47;9.20;;;;;;;10.84;75.22;96462.84;5089546;28;20669;-79
2022/12/15 10:59:03;;;;;;;15.07;9.30;;;;;;;10.75;75.53;96467.72;5109476;27;20267;-77
2022/12/15 11:01:32;;;;;;;11.70;8.70;;;;;;;11.04;74.59;96465.16;5128014;27;20301;-78
2022/12/15 11:04:00;;;;;;;14.93;9.97;;;;;;;11.05;74.29;96446.09;5129387;27;20215;-79
2022/12/15 11:06:32;;;;;;;10.53;7.47;;;;;;;11.06;75.02;96465.91;5128217;27;20188;-77
2022/12/15 11:09:27;;;;;;;9.57;6.97;;;;;;;11.07;75.68;96467.56;5144912;27;20192;-78
2022/12/15 11:14:44;;;;;;;8.73;6.10;;;;;;;11.23;76.33;96455.41;5119065;27;20803;-79
2022/12/15 11:17:17;;;;;;;7.70;6.37;;;;;;;11.22;76.12;96447.72;5109203;28;20564;-78
2022/12/15 11:19:48;;;;;;;9.37;6.73;;;;;;;11.49;76.24;96456.50;5107808;28;20185;-79
2022/12/15 11:22:48;;;;;;;10.30;7.40;;;;;;;11.58;75.89;96457.72;5108747;28;20226;-77
2022/12/15 11:25:41;;;;;;;10.50;7.60;;;;;;;11.53;76.08;96457.97;5105596;28;20228;-79
2022/12/15 11:28:15;;;;;;;10.30;7.70;;;;;;;11.66;76.55;96471.06;5088951;28;20293;-80
2022/12/15 11:30:46;;;;;;;13.10;8.47;;;;;;;11.65;76.59;96456.41;5108358;28;20266;-77
2022/12/15 11:33:14;;;;;;;10.20;7.63;;;;;;;11.71;76.29;96466.44;5122597;27;20200;-77
2022/12/15 11:35:59;;;;;;;13.07;9.37;;;;;;;11.86;75.70;96476.78;5107631;28;20660;-78
2022/12/15 11:38:39;;;;;;;12.70;9.20;;;;;;;11.86;75.94;96478.53;5090203;28;20662;-77
2022/12/15 11:41:33;;;;;;;13.70;9.07;;;;;;;11.70;75.83;96442.31;5107553;28;20188;-78
2022/12/15 11:44:24;;;;;;;12.00;8.07;;;;;;;11.69;76.67;96478.69;5082056;28;20237;-79
2022/12/15 11:46:57;;;;;;;12.73;8.50;;;;;;;11.71;76.75;96480.25;5108004;28;20308;-77
2022/12/15 11:49:59;;;;;;;12.30;9.63;;;;;;;11.57;76.45;96449.09;5114992;27;20288;-77
2022/12/15 11:53:03;;;;;;;14.73;10.03;;;;;;;11.96;76.17;96487.41;5107905;28;20191;-76
2022/12/15 11:55:45;;;;;;;13.30;9.83;;;;;;;11.89;76.71;96489.53;5092296;28;20196;-77
2022/12/15 11:58:42;;;;;;;14.30;10.23;;;;;;;12.02;75.77;96481.84;5106304;28;20865;-78
2022/12/15 12:01:39;;;;;;;15.63;9.30;;;;;;;12.03;76.43;96488.72;5107541;28;20184;-78
2022/12/15 12:04:22;;;;;;;14.03;9.50;;;;;;;11.95;76.23;96477.97;5061555;28;20232;-77
2022/12/15 12:07:18;;;;;;;14.13;9.23;;;;;;;11.73;77.10;96474.97;5121073;27;20198;-76
2022/12/15 12:10:16;;;;;;;14.60;9.00;;;;;;;11.83;76.62;96491.69;5102837;27;20217;-78
2022/12/15 12:12:52;;;;;;;16.27;10.60;;;;;;;11.86;77.15;96501.88;5127959;27;20701;-79
2022/12/15 12:15:45;;;;;;;14.17;10.50;;;;;;;11.91;77.14;96499.84;5125970;27;20229;-77
2022/12/15 12:18:26;;;;;;;15.10;11.00;;;;;;;11.81;76.70;96488.34;5120289;27;20205;-79
2022/12/15 12:21:07;;;;;;;15.00;11.20;;;;;;;11.97;76.07;96502.88;5107201;28;20662;-78
2022/12/15 12:23:59;;;;;;;15.10;10.97;;;;;;;11.97;76.19;96509.88;5119022;27;20205;-77
2022/12/15 12:26:27;;;;;;;14.97;10.73;;;;;;;12.05;75.95;96511.09;5111206;27;20214;-78
2022/12/15 12:29:05;;;;;;;15.57;10.97;;;;;;;12.03;75.76;96514.69;5134844;27;20225;-80
2022/12/15 12:31:44;;;;;;;19.27;12.83;;;;;;;12.16;74.59;96523.38;5109144;27;20255;-79
2022/12/15 12:34:51;;;;;;;17.40;13.10;;;;;;;12.17;74.42;96522.47;5122294;27;20197;-79
2022/12/15 12:38:08;;;;;;;20.20;12.77;;;;;;;12.25;74.08;96530.63;5066916;27;20675;-79
2022/12/15 12:41:04;;;;;;;15.70;11.53;;;;;;;12.20;74.01;96530.91;5126926;27;20286;-79
2022/12/15 12:43:34;;;;;;;19.73;11.93;;;;;;;12.13;74.20;96521.00;5109132;27;20235;-79
2022/12/15 12:46:13;;;;;;;15.13;11.53;;;;;;;12.14;74.28;96541.66;5105810;28;20236;-77
2022/12/15 12:48:47;;;;;;;16.67;9.60;;;;;;;12.12;74.73;96545.25;5088857;28;20184;-78
2022/12/15 12:51:32;;;;;;;13.87;9.80;;;;;;;12.03;75.06;96540.63;5106570;28;20241;-80
2022/12/15 12:53:59;;;;;;;15.57;9.87;;;;;;;12.04;75.73;96552.66;5111419;27;20996;-79
2022/12/15 12:56:37;;;;;;;10.83;7.93;;;;;;;11.94;75.32;96557.59;5127672;27;20193;-79
2022/12/15 12:59:27;;;;;;;12.43;8.00;;;;;;;11.77;75.83;96549.94;5142099;27;20189;-78
2022/12/15 13:02:14;;;;;;;13.13;8.40;;;;;;;11.85;75.83;96562.47;5115096;27;20197;-78
2022/12/15 13:04:48;;;;;;;12.03;8.30;;;;;;;11.73;76.22;96542.41;5126814;27;20231;-80
2022/12/15 13:07:39;;;;;;;12.03;8.93;;;;;;;11.84;76.49;96571.19;5126614;28;20269;-81
2022/12/15 13:10:06;;;;;;;12.27;8.70;;;;;;;11.84;76.43;96566.84;5127330;28;20339;-79
2022/12/15 13:13:14;;;;;;;14.87;10.10;;;;;;;12.03;75.19;96575.22;5125914;28;20234;-79
2022/12/15 13:15:44;;;;;;;16.67;11.80;;;;;;;11.91;75.40;96583.69;5087593;28;20733;-79
2022/12/15 13:18:16;;;;;;;14.67;10.70;;;;;;;12.08;75.03;96582.72;5088346;28;20185;-79
2022/12/15 13:20:46;;;;;;;17.53;11.43;;;;;;;11.84;75.00;96560.81;5117764;28;20194;-78
2022/12/15 13:23:22;;;;;;;17.47;12.77;;;;;;;12.10;75.28;96599.03;5086482;28;20194;-78
2022/12/15 13:25:52;;;;;;;18.00;11.80;;;;;;;12.10;75.41;96612.00;5085568;28;20222;-78
2022/12/15 13:28:37;;;;;;;17.57;11.73;;;;;;;12.06;75.58;96610.50;5085964;28;20254;-80
2022/12/15 13:31:20;;;;;;;16.83;10.67;;;;;;;12.10;75.78;96620.63;5086145;28;20190;-78
2022/12/15 13:33:53;;;;;;;14.43;10.80;;;;;;;12.08;75.02;96617.28;5083651;28;20198;-78
2022/12/15 13:36:36;;;;;;;16.93;11.03;;;;;;;12.07;75.77;96630.38;5118885;28;20824;-77
2022/12/15 13:39:13;;;;;;;15.63;10.03;;;;;;;12.06;75.46;96633.88;5085412;28;20200;-78
2022/12/15 13:41:45;;;;;;;14.93;10.87;;;;;;;12.11;75.12;96642.25;5085818;28;20570;-80
2022/12/15 13:44:43;;;;;;;16.43;11.47;;;;;;;12.19;74.93;96640.88;5086096;28;20221;-79
2022/12/15 13:47:19;;;;;;;14.33;10.60;;;;;;;12.18;75.12;96646.97;5083615;28;20635;-79
2022/12/15 13:49:50;;;;;;;17.90;11.33;;;;;;;12.11;75.41;96644.84;5085772;28;20186;-80
2022/12/15 13:52:44;;;;;;;18.83;12.20;;;;;;;12.10;75.61;96643.16;5086292;28;20665;-79
2022/12/15 13:55:37;;;;;;;17.07;11.60;;;;;;;12.02;75.36;96642.75;5085372;28;20333;-79
2022/12/15 13:58:13;;;;;;;13.73;10.13;;;;;;;12.05;75.71;96648.63;5122150;27;20339;-79
2022/12/15 14:00:49;;;;;;;15.40;10.57;;;;;;;11.98;76.10;96641.28;5089354;28;20184;-80
2022/12/15 14:03:16;;;;;;;16.23;11.33;;;;;;;11.94;75.59;96629.41;5089333;28;20183;-79
2022/12/15 14:05:56;;;;;;;17.77;10.83;;;;;;;12.11;75.83;96637.91;5089732;28;20683;-79
2022/12/15 14:08:27;;;;;;;22.20;12.93;;;;;;;12.12;75.24;96634.34;5088680;28;20190;-80
2022/12/15 14:11:00;;;;;;;21.53;15.67;;;;;;;12.03;75.92;96619.34;5089913;28;20248;-80
2022/12/15 14:13:47;;;;;;;36.70;23.43;;;;;;;12.06;76.10;96619.13;5090002;28;20194;-80
2022/12/15 14:16:21;;;;;;;25.60;17.13;;;;;;;11.90;76.26;96630.50;5109465;28;20194;-78
2022/12/15 14:19:11;;;;;;;29.30;18.13;;;;;;;11.86;76.83;96636.78;5091154;28;20381;-79
2022/12/15 14:21:38;;;;;;;26.20;18.53;;;;;;;11.83;76.56;96621.41;5108775;28;20206;-78
2022/12/15 14:24:23;;;;;;;21.67;13.77;;;;;;;11.88;77.34;96648.75;5125468;27;20195;-78
2022/12/15 14:27:06;;;;;;;21.00;13.47;;;;;;;11.80;77.03;96642.31;5090914;28;20213;-78
2022/12/15 14:29:33;;;;;;;27.93;16.83;;;;;;;11.82;77.42;96649.09;5090636;28;20659;-78
2022/12/15 14:32:01;;;;;;;28.77;16.70;;;;;;;11.74;77.89;96643.53;5109427;28;20187;-78
2022/12/15 14:34:32;;;;;;;35.67;20.97;;;;;;;11.70;77.78;96651.56;5089953;28;20701;-78
2022/12/15 14:37:04;;;;;;;26.07;16.77;;;;;;;11.57;78.08;96647.94;5109732;28;20669;-78
2022/12/15 14:39:38;;;;;;;28.20;18.93;;;;;;;11.56;79.20;96665.25;5108598;28;20279;-78
2022/12/15 14:42:06;;;;;;;28.53;18.07;;;;;;;11.48;79.43;96652.72;5109447;28;20317;-78
2022/12/15 14:44:40;;;;;;;36.90;21.80;;;;;;;11.45;79.37;96660.69;5109493;28;20217;-79
2022/12/15 14:47:25;;;;;;;33.20;20.80;;;;;;;11.38;79.10;96648.97;5108612;28;20189;-78
2022/12/15 14:49:55;;;;;;;36.60;22.67;;;;;;;11.51;79.30;96679.41;5109552;28;20186;-78
2022/12/15 14:52:27;;;;;;;37.07;21.07;;;;;;;11.45;79.45;96673.63;5108234;28;20178;-80
2022/12/15 14:54:58;;;;;;;37.10;22.33;;;;;;;11.26;80.39;96664.34;5090559;28;20638;-78
2022/12/15 14:57:41;;;;;;;33.27;19.40;;;;;;;11.14;80.33;96683.16;5124221;27;20282;-79
2022/12/15 15:00:20;;;;;;;25.57;16.63;;;;;;;11.18;80.88;96679.47;5110575;27;20183;-77
2022/12/15 15:02:48;;;;;;;37.80;19.73;;;;;;;11.12;81.21;96680.66;5129573;27;20757;-78